Aérodrome :
LOGIN :

S'inscrire | Disclaimer

   EN    FR    IT 

 










Légende :    VFR   VFR Marginal   IFR   IFR Intensif   IFR Très Intensif
Visi : 
Plafond : 
>= 8 km
>= 3000ft
5 à 8 km
1000 à 3000 ft
1500m à 5 km
500 à 1000 ft
800 à 1500m
200 à 500 ft
< 800m
< 200 ft
Symboles :   Orages  Brouillard  Fortes neiges  Fortes précipitations  Vent > 20 kt
SIGMETs :   Divers  Orages  Givrage  Turbulence  Onde Orograph.  Cendres Volcan.






- Altitude de l'aérodrome : 265 ft


LFMC - Le Luc

DERNIER METAR :
  • 150830Z AUTO VRB02KT 9999 // FEW023/// ///CB 18/17 Q1009

METARs EXPIRÉS :
  • 150800Z AUTO VRB03KT 9999 // FEW038/// ///CB 18/17 Q1010
  • 150730Z AUTO 18008KT 100V260 0800 0750 // FEW018/// BKN025/// BKN033/// ///CB 18/17 Q1010
  • 150700Z AUTO 00000KT 9999 // ////// 21/18 Q1009
  • 150630Z AUTO VRB03KT 9999 // FEW030/// SCT054/// ///CB 21/18 Q1009
  • 150600Z AUTO 12003KT 070V200 9999 // FEW026/// BKN032/// BKN042/// ///CB 20/18 Q1009

TAF N/A



MET'MAP, la Météo Aéronautique d'un coup d'oeil ! - Copyright ORBIFLY Décembre 2007 - Disclaimer

ORBIFLY MET'MAP TEAM :

Programmation & Développement : Alexandra Zaïnal
Conception & Développement : Baudouin d'Aumeries
Co-Programmation & Développement : Marc-Olivier Méhu
Soutien technique & logistique : Manuel Goepfert

Contact : metmap@orbifly.com




SOURCES & CREDITS :

   NOAA